Time;durP1;ratioP1;P1;durP2;ratioP2;P2;SDS_P1;SDS_P2;PMS_P1;PMS_P2;Temp;Humidity;BMP_temperature;BMP_pressure;BME280_temperature;BME280_humidity;BME280_pressure;Samples;Min_cycle;Max_cycle;Signal;HPM_P1;HPM_P2
2023/02/02 00:01:03;;;;;;;;;63.25;48.75;;;;;4.25;53.76;101456.81;146629;575;46010;-73
2023/02/02 00:04:04;;;;;;;;;109.33;89.00;;;;;4.31;53.18;101455.69;146629;719;45017;-70
2023/02/02 00:07:08;;;;;;;;;68.50;50.25;;;;;4.38;53.14;101454.56;146631;569;46020;-74
2023/02/02 00:10:00;;;;;;;;;63.75;48.25;;;;;4.38;53.85;101449.41;146626;564;45013;-71
2023/02/02 00:12:56;;;;;;;;;55.50;46.25;;;;;4.33;54.70;101441.34;146626;650;45021;-71
2023/02/02 00:16:03;;;;;;;;;58.25;46.25;;;;;4.24;54.56;101443.09;146630;630;45012;-73
2023/02/02 00:19:04;;;;;;;;;70.50;52.25;;;;;4.14;54.59;101440.47;146629;596;45011;-67
2023/02/02 00:22:02;;;;;;;;;63.50;46.75;;;;;4.06;55.50;101441.47;146625;606;45914;-72
2023/02/02 00:24:58;;;;;;;;;63.25;48.00;;;;;4.06;55.30;101444.03;146628;629;46020;-72
2023/02/02 00:27:56;;;;;;;;;68.25;51.00;;;;;4.12;55.23;101442.91;146628;569;44914;-71
2023/02/02 00:30:59;;;;;;;;;63.50;49.75;;;;;4.22;54.13;101438.59;146625;621;46010;-71
2023/02/02 00:33:52;;;;;;;;;59.75;47.25;;;;;4.32;55.27;101438.59;146627;624;45017;-71
2023/02/02 00:36:53;;;;;;;;;57.25;45.00;;;;;4.33;54.77;101436.19;146628;613;46020;-75
2023/02/02 00:40:02;;;;;;;;;57.00;44.00;;;;;2.40;55.11;101100.34;146623;591;46915;-72
2023/02/02 00:43:07;;;;;;;;;56.75;44.50;;;;;4.31;55.15;101439.38;146627;602;46010;-72
2023/02/02 00:46:00;;;;;;;;;54.75;43.00;;;;;4.30;55.07;101427.28;146626;633;45014;-72
2023/02/02 00:49:07;;;;;;;;;;;;;;;;;;;;;
2023/02/02 00:52:16;;;;;;;;;;;;;;;;;;;;;
2023/02/02 00:55:27;;;;;;;;;48.75;39.50;;;;;4.42;53.91;101432.59;146626;636;45021;-76
2023/02/02 00:58:19;;;;;;;;;41.75;35.25;;;;;4.49;54.03;101432.41;146624;595;45912;-76
2023/02/02 01:01:23;;;;;;;;;40.00;32.50;;;;;4.51;53.36;101424.03;146627;612;46012;-75
2023/02/02 01:04:26;;;;;;;;;42.00;32.00;;;;;4.57;53.55;101426.22;146625;650;46017;-75
2023/02/02 01:07:32;;;;;;;;;38.75;30.25;;;;;4.60;54.10;101409.41;146625;677;46010;-75
2023/02/02 01:10:24;;;;;;;;;27.25;25.75;;;;;4.68;53.45;101411.75;146624;692;45017;-75
2023/02/02 01:13:16;;;;;;;;;25.75;24.00;;;;;4.68;54.50;101415.22;146631;563;45020;-75
2023/02/02 01:16:12;;;;;;;;;22.00;17.75;;;;;4.68;53.31;101412.66;146624;597;46014;-75
2023/02/02 01:19:09;;;;;;;;;27.50;21.75;;;;;4.63;54.19;101403.63;146626;569;46021;-76
2023/02/02 01:22:26;;;;;;;;;20.75;17.25;;;;;4.72;53.85;101406.09;146625;586;45913;-70
2023/02/02 01:25:23;;;;;;;;;27.50;23.25;;;;;4.70;53.59;101403.37;146628;570;45034;-72
2023/02/02 01:28:24;;;;;;;;;21.50;17.75;;;;;4.71;53.73;101400.06;146630;601;45016;-73
2023/02/02 01:31:19;;;;;;;;;17.25;15.75;;;;;4.75;53.76;101396.09;146628;669;47010;-73
2023/02/02 01:34:26;;;;;;;;;25.75;22.75;;;;;3.83;53.46;101229.03;146625;627;47913;-73
2023/02/02 01:37:21;;;;;;;;;25.50;21.00;;;;;4.79;52.89;101388.75;146622;592;46912;-73
2023/02/02 01:40:16;;;;;;;;;18.00;16.00;;;;;4.84;53.81;101395.19;146609;600;46017;-74
2023/02/02 01:43:55;;;;;;;;;13.50;12.50;;;;;4.82;52.65;101394.16;146608;639;46020;-74
2023/02/02 01:46:47;;;;;;;;;13.25;10.25;;;;;4.78;53.63;101397.25;146608;637;46016;-75
2023/02/02 01:49:44;;;;;;;;;12.25;9.50;;;;;4.73;53.53;101392.47;146612;615;46010;-75
2023/02/02 01:52:38;;;;;;;;;18.25;16.00;;;;;4.72;53.49;101399.28;146607;606;47014;-77
2023/02/02 01:55:45;;;;;;;;;15.50;10.75;;;;;4.71;53.39;101397.50;146607;738;46021;-74
2023/02/02 01:59:08;;;;;;;;;12.00;11.25;;;;;2.63;52.88;101054.66;146610;589;46912;-76
2023/02/02 02:02:02;;;;;;;;;14.00;11.00;;;;;4.53;54.04;101411.34;146610;710;46021;-73
2023/02/02 02:05:25;;;;;;;;;10.75;9.75;;;;;2.62;53.52;101098.06;146606;695;47016;-74
2023/02/02 02:08:56;;;;;;;;;;;;;;;;;;;;;
2023/02/02 02:11:52;;;;;;;;;22.50;17.50;;;;;4.14;54.80;101419.94;146607;570;46012;-72
2023/02/02 02:18:38;;;;;;;;;16.50;14.00;;;;;2.06;54.43;101079.44;146608;565;46014;-73
2023/02/02 02:29:57;;;;;;;;;22.00;18.50;;;;;3.75;55.05;101425.00;146607;571;46020;-71
2023/02/02 02:33:28;;;;;;;;;20.00;16.50;;;;;1.54;55.51;101059.31;146610;804;46016;-74
2023/02/02 02:37:11;;;;;;;;;;;;;;;;;;;;;
2023/02/02 02:40:49;;;;;;;;;17.00;15.25;;;;;1.50;56.74;101081.16;146631;601;45017;-76
2023/02/02 02:44:14;;;;;;;;;19.00;16.25;;;;;1.44;55.63;101089.91;146628;606;45020;-75
2023/02/02 02:47:32;;;;;;;;;17.75;14.25;;;;;1.35;56.29;101088.28;146628;581;44912;-75
2023/02/02 02:50:30;;;;;;;;;24.25;17.50;;;;;3.39;56.87;101444.00;146629;640;45020;-70
2023/02/02 02:53:25;;;;;;;;;21.25;14.75;;;;;3.39;57.24;101449.12;146630;602;45017;-69
2023/02/02 02:56:44;;;;;;;;;22.25;17.00;;;;;3.37;56.05;101442.97;146629;664;46020;-68
2023/02/02 03:00:29;;;;;;;;;19.25;15.50;;;;;1.33;55.79;101101.66;146629;607;45016;-67
2023/02/02 03:04:05;;;;;;;;;19.50;16.00;;;;;1.20;57.35;101088.50;146628;751;45028;-70
2023/02/02 03:07:16;;;;;;;;;16.25;14.00;;;;;3.08;56.97;101433.50;146629;705;45016;-69
2023/02/02 03:10:19;;;;;;;;;19.00;16.00;;;;;3.03;57.96;101447.56;146633;633;45012;-70
2023/02/02 03:13:24;;;;;;;;;11.75;11.75;;;;;3.03;58.00;101449.22;146632;636;45914;-71
2023/02/02 03:16:28;;;;;;;;;15.75;13.25;;;;;3.02;57.75;101440.59;146631;610;45010;-70
2023/02/02 03:19:29;;;;;;;;;10.50;10.00;;;;;3.03;58.22;101446.66;146633;754;45014;-69
2023/02/02 03:22:37;;;;;;;;;;;;;;;;;;;;;
2023/02/02 03:25:43;;;;;;;;;14.50;9.75;;;;;3.00;57.62;101447.28;146634;638;45012;-72
2023/02/02 03:28:45;;;;;;;;;12.50;11.00;;;;;2.98;57.02;101444.56;146632;664;46010;-72
2023/02/02 03:31:51;;;;;;;;;9.75;6.75;;;;;0.85;57.53;101069.09;146634;711;45017;-72
2023/02/02 03:34:44;;;;;;;;;8.25;8.25;;;;;2.96;57.03;101452.84;146634;639;45020;-71
2023/02/02 03:37:53;;;;;;;;;8.50;6.75;;;;;1.09;56.59;101120.69;146633;665;45017;-71
2023/02/02 03:40:51;;;;;;;;;9.50;7.75;;;;;2.96;57.43;101452.84;146616;602;46020;-71
2023/02/02 03:43:43;;;;;;;;;9.25;7.00;;;;;2.95;57.45;101454.50;146612;706;46017;-75
2023/02/02 03:46:35;;;;;;;;;7.75;5.75;;;;;2.95;57.76;101461.31;146613;668;46010;-79
2023/02/02 03:49:31;;;;;;;;;6.00;5.50;;;;;2.94;57.05;101457.84;146614;589;46012;-80
2023/02/02 03:52:40;;;;;;;;;8.00;6.00;;;;;2.93;57.51;101455.16;146613;661;47020;-74
2023/02/02 03:55:45;;;;;;;;;10.75;9.50;;;;;2.86;57.95;101450.19;146614;594;46012;-73
2023/02/02 03:58:37;;;;;;;;;14.50;11.75;;;;;2.84;57.71;101454.31;146612;579;46020;-74
2023/02/02 04:01:33;;;;;;;;;23.25;18.25;;;;;2.83;57.67;101448.25;146605;610;46017;-75
2023/02/02 04:04:34;;;;;;;;;16.75;14.00;;;;;2.85;57.83;101451.88;146607;569;47020;-72
2023/02/02 04:07:26;;;;;;;;;18.25;15.25;;;;;2.86;57.70;101450.19;146610;577;46016;-74
2023/02/02 04:10:30;;;;;;;;;20.75;16.00;;;;;2.87;57.56;101450.37;146613;722;46010;-73
2023/02/02 04:13:22;;;;;;;;;19.25;16.25;;;;;2.88;57.97;101444.47;146607;619;47012;-75
2023/02/02 04:16:35;;;;;;;;;;;;;;;;;;;;;
2023/02/02 04:19:36;;;;;;;;;15.00;11.25;;;;;2.82;56.84;101448.13;146614;572;46012;-79
2023/02/02 04:22:41;;;;;;;;;14.25;13.00;;;;;2.76;58.03;101441.66;146613;581;46021;-79
2023/02/02 04:25:36;;;;;;;;;17.50;13.50;;;;;2.69;58.33;101446.06;146607;581;46016;-70
2023/02/02 04:28:37;;;;;;;;;18.50;12.75;;;;;2.62;58.28;101446.25;146610;580;47010;-74
2023/02/02 04:31:57;;;;;;;;;12.75;12.75;;;;;2.60;58.19;101447.78;146606;682;46016;-75
2023/02/02 04:34:52;;;;;;;;;13.25;12.75;;;;;2.60;57.97;101435.88;146609;614;46020;-75
2023/02/02 04:37:46;;;;;;;;;14.00;11.75;;;;;2.62;57.44;101448.81;146610;565;46914;-71
2023/02/02 04:40:45;;;;;;;;;17.75;13.50;;;;;2.62;57.94;101448.81;146617;577;47010;-73
2023/02/02 04:43:43;;;;;;;;;16.50;14.25;;;;;2.64;58.17;101450.75;146609;572;47012;-71
2023/02/02 04:46:36;;;;;;;;;15.00;12.50;;;;;2.65;57.88;101451.66;146616;584;46010;-71
2023/02/02 04:49:49;;;;;;;;;19.25;17.25;;;;;2.67;57.76;101452.69;146614;636;47025;-72
2023/02/02 04:52:44;;;;;;;;;23.50;17.50;;;;;2.68;58.38;101454.50;146614;648;46012;-71
2023/02/02 04:55:42;;;;;;;;;21.75;17.75;;;;;2.65;58.26;101456.75;146610;597;46012;-71
2023/02/02 04:59:00;;;;;;;;;;;;;;;;;;;;;
2023/02/02 05:01:53;;;;;;;;;18.75;17.25;;;;;2.67;58.84;101457.81;146613;583;46014;-72
2023/02/02 05:04:49;;;;;;;;;17.75;14.75;;;;;2.71;57.23;101470.16;146614;569;46026;-71
2023/02/02 05:07:45;;;;;;;;;28.00;23.00;;;;;2.73;58.20;101451.63;146609;570;47017;-72
2023/02/02 05:10:49;;;;;;;;;23.25;18.75;;;;;2.85;57.36;101458.66;146618;739;46010;-71
2023/02/02 05:13:48;;;;;;;;;18.75;15.00;;;;;2.94;56.70;101454.37;146610;749;46016;-71
2023/02/02 05:16:56;;;;;;;;;19.25;17.00;;;;;3.04;56.45;101448.47;146614;752;46010;-73
2023/02/02 05:19:51;;;;;;;;;22.25;20.75;;;;;3.15;56.57;101458.94;146615;582;46012;-75
2023/02/02 05:22:53;;;;;;;;;28.75;26.00;;;;;3.27;55.95;101458.25;146614;605;46020;-74
2023/02/02 05:25:48;;;;;;;;;31.50;23.75;;;;;3.38;55.70;101462.72;146613;631;46912;-70
2023/02/02 05:28:51;;;;;;;;;15.75;14.50;;;;;3.46;54.89;101466.88;146615;635;46011;-70
2023/02/02 05:31:51;;;;;;;;;16.75;14.00;;;;;3.56;54.68;101461.81;146613;624;46016;-69
2023/02/02 05:34:45;;;;;;;;;19.75;15.25;;;;;3.63;54.97;101470.97;146614;565;46020;-70
2023/02/02 05:37:41;;;;;;;;;14.25;12.50;;;;;3.69;54.51;101466.41;146609;583;47010;-74
2023/02/02 05:40:34;;;;;;;;;15.75;14.50;;;;;3.78;54.13;101471.47;146631;610;46010;-72
2023/02/02 05:43:38;;;;;;;;;22.25;17.00;;;;;3.85;53.69;101473.81;146623;614;46016;-72
2023/02/02 05:46:44;;;;;;;;;20.00;19.50;;;;;3.93;53.44;101467.72;146626;598;47020;-72
2023/02/02 05:49:55;;;;;;;;;31.00;29.00;;;;;2.08;52.79;101121.37;146628;700;45017;-76
2023/02/02 05:52:58;;;;;;;;;23.50;21.00;;;;;4.12;53.12;101471.13;146628;628;46010;-74
2023/02/02 05:55:55;;;;;;;;;34.50;27.75;;;;;4.22;52.94;101477.09;146628;573;45016;-74
2023/02/02 05:58:57;;;;;;;;;24.75;21.00;;;;;4.29;52.33;101480.31;146624;565;46021;-75
2023/02/02 06:01:52;;;;;;;;;23.00;18.50;;;;;3.47;52.63;101318.31;146629;622;45016;-74
2023/02/02 06:04:48;;;;;;;;;26.75;20.75;;;;;4.48;52.43;101481.94;146626;580;46013;-74
2023/02/02 06:07:50;;;;;;;;;25.50;21.00;;;;;4.55;51.92;101487.75;146627;607;46012;-74
2023/02/02 06:10:48;;;;;;;;;20.75;16.00;;;;;4.73;53.82;101496.12;146630;582;45010;-74
2023/02/02 06:13:40;;;;;;;;;26.25;21.00;;;;;5.59;55.69;101492.25;146626;631;46010;-74
2023/02/02 06:16:35;;;;;;;;;33.50;26.00;;;;;6.90;51.86;101497.75;146628;618;45020;-74
2023/02/02 06:19:34;;;;;;;;;28.25;25.75;;;;;8.31;49.49;101487.72;146625;638;45016;-75
2023/02/02 06:22:42;;;;;;;;;;;;;;;;;;;;;
2023/02/02 06:25:39;;;;;;;;;22.75;19.00;;;;;11.08;43.80;101481.19;146627;598;45018;-76
2023/02/02 06:28:36;;;;;;;;;19.50;16.50;;;;;12.31;41.10;101476.34;146629;582;46010;-75
2023/02/02 06:31:32;;;;;;;;;20.75;17.75;;;;;13.34;39.28;101477.63;146627;572;46912;-75
2023/02/02 06:34:27;;;;;;;;;16.75;14.25;;;;;14.33;37.52;101481.69;146630;603;45021;-75
2023/02/02 06:37:29;;;;;;;;;;;;;;;;;;;;;
2023/02/02 06:40:34;;;;;;;;;;;;;;;;;;;;;
2023/02/02 06:43:33;;;;;;;;;18.75;16.75;;;;;16.49;34.25;101482.44;146609;577;46017;-73
2023/02/02 06:46:34;;;;;;;;;16.25;14.25;;;;;16.97;33.02;101465.94;146612;700;46020;-70
2023/02/02 06:49:29;;;;;;;;;17.75;15.75;;;;;17.45;31.95;101476.44;146612;790;46017;-72
2023/02/02 06:52:28;;;;;;;;;22.25;19.25;;;;;17.79;31.75;101478.53;146614;564;46020;-71
2023/02/02 06:55:31;;;;;;;;;14.25;12.25;;;;;18.06;31.29;101469.78;146612;573;46016;-76
2023/02/02 06:58:28;;;;;;;;;13.00;12.50;;;;;18.37;30.32;101467.28;146615;581;46020;-73
2023/02/02 07:01:26;;;;;;;;;21.25;14.00;;;;;18.48;29.44;101474.63;146612;580;46012;-73
2023/02/02 07:04:21;;;;;;;;;12.25;12.25;;;;;18.45;30.20;101473.66;146615;582;46010;-77
2023/02/02 07:07:19;;;;;;;;;11.75;10.50;;;;;18.39;29.52;101473.47;146609;606;47016;-76
2023/02/02 07:10:17;;;;;;;;;19.00;16.75;;;;;18.18;29.81;101465.81;146616;587;46010;-75
2023/02/02 07:13:11;;;;;;;;;18.00;15.75;;;;;17.77;29.54;101467.97;146611;709;47012;-75
2023/02/02 07:16:15;;;;;;;;;18.00;17.00;;;;;17.24;30.47;101473.94;146613;602;46020;-71
2023/02/02 07:19:19;;;;;;;;;21.50;20.00;;;;;15.25;32.55;101237.75;146612;569;46016;-72
2023/02/02 07:22:14;;;;;;;;;25.50;21.75;;;;;16.06;31.07;101482.44;146614;576;46021;-70
2023/02/02 07:25:06;;;;;;;;;23.00;22.00;;;;;15.41;32.48;101494.47;146611;599;46912;-71
2023/02/02 07:28:08;;;;;;;;;23.75;21.75;;;;;14.81;33.01;101502.25;146612;606;46021;-70
2023/02/02 07:31:28;;;;;;;;;21.25;19.50;;;;;12.58;36.52;101206.41;146612;631;46016;-72
2023/02/02 07:34:23;;;;;;;;;20.75;19.25;;;;;13.90;34.72;101503.91;146610;584;47011;-67
2023/02/02 07:37:30;;;;;;;;;22.25;19.50;;;;;13.50;35.59;101496.66;146611;594;45016;-72
2023/02/02 07:40:22;;;;;;;;;22.00;19.00;;;;;13.13;35.65;101505.09;146617;607;46010;-74
2023/02/02 07:43:20;;;;;;;;;24.25;20.00;;;;;12.92;37.62;101497.03;146610;574;46017;-75
2023/02/02 07:46:19;;;;;;;;;27.00;24.50;;;;;12.84;37.01;101498.34;146612;590;46020;-73
2023/02/02 07:49:21;;;;;;;;;24.75;20.75;;;;;12.67;37.77;101505.19;146610;569;47013;-73
2023/02/02 07:52:33;;;;;;;;;22.00;19.75;;;;;12.44;38.35;101502.22;146615;606;46020;-72
2023/02/02 07:55:36;;;;;;;;;19.00;16.00;;;;;10.57;38.31;101215.25;146615;593;46012;-73
2023/02/02 07:58:37;;;;;;;;;22.75;19.50;;;;;12.11;38.39;101511.59;146615;617;45021;-73
2023/02/02 08:01:32;;;;;;;;;28.50;21.50;;;;;12.06;38.54;101513.06;146613;580;46012;-72
2023/02/02 08:04:34;;;;;;;;;26.50;23.00;;;;;11.96;38.09;101508.09;146612;620;46021;-70
2023/02/02 08:07:31;;;;;;;;;32.00;25.25;;;;;11.88;38.44;101510.28;146614;597;46014;-71
2023/02/02 08:10:28;;;;;;;;;25.00;22.00;;;;;11.86;39.23;101513.59;146615;608;46011;-71
2023/02/02 08:13:24;;;;;;;;;25.50;21.50;;;;;11.92;40.41;101514.84;146612;584;46012;-74
2023/02/02 08:16:22;;;;;;;;;22.50;19.00;;;;;12.13;39.41;101511.69;146614;627;46031;-72
2023/02/02 08:19:31;;;;;;;;;;;;;;;;;;;;;
2023/02/02 08:22:34;;;;;;;;;21.75;19.00;;;;;12.32;38.58;101501.53;146611;636;47912;-72
2023/02/02 08:25:36;;;;;;;;;16.25;13.50;;;;;12.46;38.56;101512.69;146612;670;46014;-71
2023/02/02 08:28:34;;;;;;;;;14.75;12.25;;;;;12.55;37.59;101497.59;146618;565;46010;-71
2023/02/02 08:31:41;;;;;;;;;18.25;14.00;;;;;12.66;38.25;101498.22;146611;565;47012;-71
2023/02/02 08:34:40;;;;;;;;;8.00;8.00;;;;;12.76;37.04;101500.50;146613;574;46021;-69
2023/02/02 08:37:38;;;;;;;;;15.25;13.00;;;;;12.84;37.20;101499.22;146611;594;47012;-72
2023/02/02 08:40:51;;;;;;;;;15.00;14.25;;;;;11.35;36.85;101216.25;146608;603;46010;-71
2023/02/02 08:43:46;;;;;;;;;17.50;13.00;;;;;13.06;36.48;101506.47;146604;678;46016;-71
2023/02/02 08:46:41;;;;;;;;;10.25;9.25;;;;;13.11;36.56;101504.09;146610;581;47011;-72
2023/02/02 08:49:46;;;;;;;;;13.50;13.00;;;;;13.17;37.21;101507.94;146607;583;46012;-74
2023/02/02 08:52:55;;;;;;;;;20.50;19.00;;;;;13.31;37.48;101508.72;146609;593;46020;-73
2023/02/02 08:55:56;;;;;;;;;20.00;18.50;;;;;13.48;36.99;101516.50;146605;584;47017;-72
2023/02/02 08:59:04;;;;;;;;;21.00;16.00;;;;;13.62;36.60;101511.19;146608;579;46010;-74
2023/02/02 09:02:06;;;;;;;;;5.75;5.75;;;;;13.76;33.94;101517.09;146612;599;46016;-74
2023/02/02 09:05:03;;;;;;;;;9.00;6.25;;;;;13.81;33.56;101515.63;146613;610;47020;-75
2023/02/02 09:07:55;;;;;;;;;5.50;4.50;;;;;13.88;34.17;101519.44;146615;581;46016;-74
2023/02/02 09:10:47;;;;;;;;;6.00;4.25;;;;;14.02;33.46;101522.75;146614;641;46021;-74
2023/02/02 09:14:06;;;;;;;;;5.75;4.50;;;;;12.52;34.28;101242.50;146612;589;46016;-76
2023/02/02 09:16:58;;;;;;;;;7.75;5.00;;;;;14.27;33.41;101519.66;146615;565;46020;-76
2023/02/02 09:20:10;;;;;;;;;11.25;8.25;;;;;12.77;33.87;101231.62;146607;586;48014;-73
2023/02/02 09:23:05;;;;;;;;;5.75;5.25;;;;;14.49;32.00;101518.97;146618;607;46010;-74
2023/02/02 09:26:13;;;;;;;;;5.75;5.50;;;;;12.68;33.20;101190.47;146611;567;47911;-75
2023/02/02 09:29:13;;;;;;;;;8.00;7.00;;;;;14.54;32.23;101517.50;146614;741;46020;-72
2023/02/02 09:32:13;;;;;;;;;5.50;5.50;;;;;14.60;32.57;101524.72;146611;576;46910;-73
2023/02/02 09:35:14;;;;;;;;;6.75;5.75;;;;;14.64;31.96;101514.50;146615;644;46020;-74
2023/02/02 09:38:29;;;;;;;;;6.00;4.25;;;;;14.69;32.53;101518.22;146614;627;47012;-74
2023/02/02 09:42:04;;;;;;;;;6.25;4.00;;;;;14.84;33.90;101511.94;146616;578;46010;-75
2023/02/02 09:45:28;;;;;;;;;6.00;5.25;;;;;14.95;32.52;101509.00;146613;573;46033;-74
2023/02/02 09:48:54;;;;;;;;;3.00;3.00;;;;;15.01;32.64;101504.06;146613;645;46021;-74
2023/02/02 09:52:04;;;;;;;;;6.00;5.00;;;;;15.15;34.16;101503.78;146613;565;46012;-75
2023/02/02 09:55:22;;;;;;;;;6.25;5.25;;;;;15.34;33.08;101482.88;146617;605;46021;-76
2023/02/02 09:58:53;;;;;;;;;7.25;7.25;;;;;15.50;33.41;101480.94;146613;601;46016;-76
2023/02/02 10:01:56;;;;;;;;;5.25;4.50;;;;;15.80;32.45;101482.28;146612;625;47021;-75
2023/02/02 10:04:55;;;;;;;;;8.25;6.00;;;;;16.01;31.40;101468.28;146617;675;46012;-75
2023/02/02 10:08:11;;;;;;;;;12.25;10.00;;;;;16.10;29.98;101463.44;146612;581;46020;-74
2023/02/02 10:11:15;;;;;;;;;10.00;9.00;;;;;16.14;31.62;101449.66;146613;604;47012;-75
2023/02/02 10:14:18;;;;;;;;;9.75;6.75;;;;;16.30;32.65;101452.03;146613;607;47010;-76
2023/02/02 10:18:04;;;;;;;;;7.00;7.00;;;;;14.84;31.94;101162.09;146613;564;46033;-76
2023/02/02 10:21:09;;;;;;;;;4.00;4.00;;;;;16.45;30.67;101443.00;146616;576;45022;-76
2023/02/02 10:24:28;;;;;;;;;6.00;6.00;;;;;14.87;29.20;101170.91;146614;579;46015;-76
2023/02/02 10:27:42;;;;;;;;;3.50;3.00;;;;;16.34;32.55;101432.12;146613;690;46020;-76
2023/02/02 10:31:11;;;;;;;;;6.75;6.25;;;;;16.40;32.21;101428.00;146611;641;46017;-76
2023/02/02 10:34:16;;;;;;;;;9.00;9.00;;;;;16.58;32.24;101427.81;146608;597;46020;-76
2023/02/02 10:37:34;;;;;;;;;8.00;7.50;;;;;16.78;31.45;101425.09;146610;569;46012;-75
2023/02/02 10:41:24;;;;;;;;;7.25;5.00;;;;;15.63;31.73;101196.56;146612;571;46021;-76
2023/02/02 10:44:44;;;;;;;;;4.25;3.00;;;;;17.06;32.86;101406.91;146614;563;46012;-76
2023/02/02 10:47:49;;;;;;;;;5.50;4.50;;;;;17.23;28.92;101404.03;146615;553;46021;-76
2023/02/02 10:50:48;;;;;;;;;6.00;4.00;;;;;17.24;29.46;101400.56;146612;633;46016;-75
2023/02/02 10:53:42;;;;;;;;;7.50;5.00;;;;;17.24;30.52;101405.78;146617;614;47011;-75
2023/02/02 10:56:58;;;;;;;;;5.00;4.25;;;;;17.32;33.36;101399.09;146614;570;46016;-76
2023/02/02 11:00:51;;;;;;;;;7.25;6.50;;;;;15.93;33.73;101122.75;146614;563;47010;-75
2023/02/02 11:03:47;;;;;;;;;9.50;8.00;;;;;17.54;29.33;101370.16;146611;607;46016;-75
2023/02/02 11:06:58;;;;;;;;;5.75;5.75;;;;;17.81;29.53;101376.25;146616;633;46010;-75
2023/02/02 11:09:53;;;;;;;;;4.00;4.00;;;;;17.91;29.80;101374.00;146614;589;46016;-75
2023/02/02 11:13:01;;;;;;;;;;;;;;;;;;;;;
2023/02/02 11:15:55;;;;;;;;;11.00;8.75;;;;;18.04;30.40;101366.47;146611;601;46910;-77
2023/02/02 11:18:54;;;;;;;;;6.25;6.25;;;;;18.14;29.92;101358.94;146613;572;46012;-72
2023/02/02 11:22:00;;;;;;;;;5.00;5.00;;;;;18.25;30.09;101354.00;146614;700;45034;-72
2023/02/02 11:24:56;;;;;;;;;7.00;4.00;;;;;18.32;29.69;101353.38;146611;572;47010;-73
2023/02/02 11:27:52;;;;;;;;;8.25;5.00;;;;;18.37;29.68;101338.63;146612;605;46016;-73
2023/02/02 11:30:55;;;;;;;;;7.50;6.25;;;;;18.40;30.47;101340.47;146615;634;46020;-72
2023/02/02 11:33:57;;;;;;;;;5.50;5.50;;;;;18.46;31.90;101338.00;146611;611;47012;-74
2023/02/02 11:37:30;;;;;;;;;5.00;4.25;;;;;17.02;33.19;101067.06;146614;569;46020;-74
2023/02/02 11:40:59;;;;;;;;;4.00;4.00;;;;;18.53;32.97;101316.31;146609;680;46016;-72
2023/02/02 11:43:57;;;;;;;;;7.00;4.00;;;;;18.58;28.01;101308.59;146615;569;46035;-69
2023/02/02 11:46:51;;;;;;;;;5.75;3.00;;;;;18.53;28.51;101297.03;146610;580;47014;-78
2023/02/02 11:49:46;;;;;;;;;9.25;8.25;;;;;18.54;29.31;101305.00;146614;582;47020;-77
2023/02/02 11:53:14;;;;;;;;;5.25;5.25;;;;;18.60;31.40;101297.28;146610;576;47016;-75
2023/02/02 11:56:29;;;;;;;;;6.75;5.75;;;;;18.60;30.57;101297.28;146613;600;46020;-75
2023/02/02 11:59:51;;;;;;;;;5.00;4.00;;;;;18.64;31.84;101293.88;146613;718;46013;-76
2023/02/02 12:02:57;;;;;;;;;5.00;4.00;;;;;18.69;28.40;101288.72;146615;579;46020;-76
2023/02/02 12:06:00;;;;;;;;;5.00;5.00;;;;;18.67;28.84;101280.81;146609;590;47012;-79
2023/02/02 12:09:04;;;;;;;;;7.00;7.00;;;;;18.74;27.17;101273.16;146612;597;46021;-77
2023/02/02 12:12:58;;;;;;;;;10.50;5.00;;;;;18.77;28.88;101267.97;146613;565;46034;-78
2023/02/02 12:16:29;;;;;;;;;7.50;5.25;;;;;18.72;29.55;101266.91;146610;602;47021;-78
2023/02/02 12:19:50;;;;;;;;;5.75;4.00;;;;;18.75;26.26;101265.28;146611;574;47016;-76
2023/02/02 12:23:45;;;;;;;;;8.00;7.00;;;;;17.25;31.86;101019.69;146613;649;46020;-75
2023/02/02 12:26:54;;;;;;;;;5.00;5.00;;;;;18.71;28.31;101263.41;146612;654;46016;-78
2023/02/02 12:30:34;;;;;;;;;9.00;7.50;;;;;17.33;32.30;101002.47;146616;691;46021;-80
2023/02/02 12:33:49;;;;;;;;;10.00;10.00;;;;;18.79;29.09;101248.78;146611;678;47042;-77
2023/02/02 12:37:22;;;;;;;;;10.25;9.75;;;;;17.33;30.83;100986.72;146615;566;47010;-78
2023/02/02 12:40:54;;;;;;;;;18.50;16.50;;;;;18.98;29.11;101246.63;146609;587;46912;-78
2023/02/02 12:44:35;;;;;;;;;7.00;3.00;;;;;17.49;30.58;100993.28;146614;692;47021;-77
2023/02/02 12:48:07;;;;;;;;;4.75;4.75;;;;;17.38;27.23;100982.47;146611;579;46016;-77
2023/02/02 12:51:54;;;;;;;;;9.75;5.50;;;;;18.76;25.65;101240.81;146611;608;46020;-74
2023/02/02 12:55:14;;;;;;;;;4.00;4.00;;;;;18.64;26.15;101245.72;146613;569;46016;-77
2023/02/02 12:58:34;;;;;;;;;5.50;3.50;;;;;18.51;26.46;101247.13;146613;667;47010;-78
2023/02/02 13:02:16;;;;;;;;;6.25;4.75;;;;;18.39;28.86;101234.53;146610;572;46016;-77
2023/02/02 13:05:55;;;;;;;;;4.50;4.50;;;;;16.92;30.83;100977.69;146617;695;46020;-78
2023/02/02 13:09:40;;;;;;;;;6.25;5.00;;;;;16.90;28.18;100959.31;146612;598;47014;-77
2023/02/02 13:12:49;;;;;;;;;5.00;5.00;;;;;18.54;26.80;101238.44;146616;563;46010;-76
2023/02/02 13:15:55;;;;;;;;;10.00;7.00;;;;;18.61;29.31;101229.87;146612;619;48013;-77
2023/02/02 13:19:16;;;;;;;;;12.75;12.25;;;;;18.84;27.14;101235.75;146606;576;46020;-75
2023/02/02 13:22:39;;;;;;;;;10.25;8.25;;;;;17.64;28.55;100991.09;146608;597;45018;-76
2023/02/02 13:25:40;;;;;;;;;5.25;5.00;;;;;19.23;27.37;101241.13;146614;722;47012;-76
2023/02/02 13:29:27;;;;;;;;;4.67;3.00;;;;;19.31;28.35;101234.28;146615;564;46015;-75
2023/02/02 13:32:45;;;;;;;;;7.67;6.00;;;;;19.41;26.97;101227.53;146617;583;46020;-76
2023/02/02 13:36:24;;;;;;;;;4.67;3.67;;;;;19.55;27.38;101227.84;146612;599;46017;-76
2023/02/02 13:39:36;;;;;;;;;4.00;4.00;;;;;19.60;26.94;101232.34;146617;672;47012;-76
2023/02/02 13:43:04;;;;;;;;;8.75;8.75;;;;;18.25;30.96;100994.41;146612;610;46012;-76
2023/02/02 13:46:45;;;;;;;;;17.00;16.50;;;;;18.39;29.53;100981.63;146608;573;46010;-76
2023/02/02 13:50:03;;;;;;;;;7.00;6.75;;;;;20.05;28.15;101231.56;146613;570;46912;-75
2023/02/02 13:53:24;;;;;;;;;6.50;6.50;;;;;20.11;27.12;101233.47;146616;615;46020;-76
2023/02/02 13:56:58;;;;;;;;;3.33;3.00;;;;;19.80;25.29;101174.91;146615;612;46016;-76
2023/02/02 14:00:22;;;;;;;;;5.33;4.67;;;;;18.60;28.20;100990.00;146613;577;46021;-75
2023/02/02 14:03:42;;;;;;;;;6.00;6.00;;;;;19.95;30.00;101229.63;146610;618;46018;-76
2023/02/02 14:07:08;;;;;;;;;5.67;4.67;;;;;20.05;27.97;101238.59;146613;591;46020;-76
2023/02/02 14:10:03;;;;;;;;;10.25;9.00;;;;;20.03;25.79;101220.16;146609;571;46016;-76
2023/02/02 14:16:54;;;;;;;;;5.00;4.00;;;;;20.05;26.10;101217.53;146613;606;47012;-75
2023/02/02 14:20:04;;;;;;;;;7.00;4.00;;;;;19.87;26.26;101214.53;146617;589;46012;-71
2023/02/02 14:23:01;;;;;;;;;10.50;10.00;;;;;19.69;28.00;101218.56;146608;676;46017;-77
2023/02/02 14:26:29;;;;;;;;;29.50;28.50;;;;;19.53;30.53;101213.75;146607;611;47010;-77
2023/02/02 14:30:11;;;;;;;;;17.50;17.50;;;;;17.90;30.48;100965.53;146605;570;46910;-76
2023/02/02 14:33:46;;;;;;;;;16.50;12.75;;;;;17.61;31.39;100963.88;146607;583;46010;-78
2023/02/02 14:37:23;;;;;;;;;21.75;19.00;;;;;17.13;31.36;100935.47;146605;597;46016;-78
2023/02/02 14:40:56;;;;;;;;;12.75;12.25;;;;;18.51;30.82;101217.34;146612;590;46010;-79
2023/02/02 14:44:09;;;;;;;;;35.00;30.00;;;;;18.31;30.07;101217.69;146605;565;46013;-79
2023/02/02 14:47:30;;;;;;;;;25.50;20.50;;;;;18.08;29.10;101221.41;146608;631;46012;-79
2023/02/02 14:51:01;;;;;;;;;13.00;10.50;;;;;16.37;31.95;100969.88;146606;635;46908;-77
2023/02/02 14:54:11;;;;;;;;;24.25;22.00;;;;;17.57;30.79;101221.59;146607;608;46020;-79
2023/02/02 14:57:27;;;;;;;;;33.50;29.25;;;;;17.40;31.03;101221.09;146605;666;46016;-78
2023/02/02 15:00:34;;;;;;;;;45.75;32.25;;;;;17.27;31.26;101225.06;146607;644;47012;-78